Time;durP1;ratioP1;P1;durP2;ratioP2;P2;SDS_P1;SDS_P2;PMS_P1;PMS_P2;Temp;Humidity;BMP_temperature;BMP_pressure;BME280_temperature;BME280_humidity;BME280_pressure;Samples;Min_cycle;Max_cycle;Signal;HPM_P1;HPM_P2
2023/04/25 00:00:17;;;;;;;3.77;2.27;;;;;;;12.21;100.00;98325.59;5151526;27;20304;-73
2023/04/25 00:02:44;;;;;;;3.13;2.03;;;;;;;12.21;100.00;98330.72;5151449;27;20223;-74
2023/04/25 00:05:11;;;;;;;2.90;2.17;;;;;;;12.19;100.00;98324.16;5151952;27;20227;-74
2023/04/25 00:07:38;;;;;;;4.00;3.07;;;;;;;12.18;100.00;98319.94;5150939;27;20199;-74
2023/04/25 00:10:08;;;;;;;4.17;2.73;;;;;;;12.18;100.00;98310.50;5151353;27;20243;-74
2023/04/25 00:12:35;;;;;;;2.30;1.70;;;;;;;12.13;100.00;98306.75;5151526;27;20196;-75
2023/04/25 00:15:02;;;;;;;2.40;2.20;;;;;;;12.20;100.00;98312.94;5151493;27;20746;-75
2023/04/25 00:17:29;;;;;;;2.50;1.77;;;;;;;11.99;100.00;98305.44;5151479;27;20199;-76
2023/04/25 00:19:57;;;;;;;2.17;1.73;;;;;;;11.98;100.00;98304.66;5151567;27;20219;-76
2023/04/25 00:22:24;;;;;;;2.00;1.47;;;;;;;12.05;100.00;98298.97;5151405;27;20318;-76
2023/04/25 00:24:53;;;;;;;2.23;1.70;;;;;;;12.09;100.00;98295.16;5151432;27;20231;-76
2023/04/25 00:27:21;;;;;;;3.30;1.67;;;;;;;11.94;100.00;98297.38;5151287;27;20212;-76
2023/04/25 00:29:48;;;;;;;4.53;1.70;;;;;;;11.96;100.00;98291.16;5151860;27;20231;-76
2023/04/25 00:32:14;;;;;;;2.90;1.77;;;;;;;12.05;100.00;98281.03;5151306;27;20191;-76
2023/04/25 00:34:41;;;;;;;2.20;1.97;;;;;;;11.98;100.00;98273.91;5151265;27;20666;-76
2023/04/25 00:37:08;;;;;;;3.00;2.00;;;;;;;11.91;100.00;98272.84;5151404;27;20196;-76
2023/04/25 00:39:35;;;;;;;2.37;1.67;;;;;;;11.91;100.00;98267.72;5151025;27;20223;-75
2023/04/25 00:42:03;;;;;;;2.30;1.77;;;;;;;11.90;100.00;98268.66;5151063;27;20603;-76
2023/04/25 00:44:32;;;;;;;3.63;1.87;;;;;;;11.88;100.00;98257.75;5151544;27;20227;-76
2023/04/25 00:47:01;;;;;;;1.33;1.13;;;;;;;11.94;100.00;98254.63;5151107;27;20210;-76
2023/04/25 00:49:28;;;;;;;2.70;1.30;;;;;;;12.13;100.00;98250.38;5151165;27;20242;-76
2023/04/25 00:51:55;;;;;;;1.77;1.30;;;;;;;12.17;100.00;98238.91;5151141;27;20204;-76
2023/04/25 00:54:23;;;;;;;2.17;1.47;;;;;;;12.27;100.00;98237.09;5150936;27;20613;-76
2023/04/25 00:56:50;;;;;;;1.30;1.20;;;;;;;12.31;100.00;98228.19;5150881;27;20590;-76
2023/04/25 00:59:18;;;;;;;1.47;1.37;;;;;;;12.27;100.00;98223.47;5151379;27;20663;-76
2023/04/25 01:01:46;;;;;;;1.47;0.97;;;;;;;12.28;100.00;98222.53;5150722;27;20259;-76
2023/04/25 01:04:16;;;;;;;2.13;1.47;;;;;;;12.31;100.00;98228.19;5150666;27;20220;-76
2023/04/25 01:06:43;;;;;;;2.47;1.30;;;;;;;12.30;100.00;98216.31;5150774;27;20736;-76
2023/04/25 01:09:11;;;;;;;1.70;1.60;;;;;;;12.32;100.00;98224.66;5150760;27;20220;-76
2023/04/25 01:11:39;;;;;;;2.23;1.63;;;;;;;12.39;100.00;98220.59;5150613;27;20188;-76
2023/04/25 01:14:06;;;;;;;2.13;1.80;;;;;;;12.31;100.00;98224.81;5150705;27;20219;-75
2023/04/25 01:16:33;;;;;;;2.60;1.40;;;;;;;12.38;100.00;98229.22;5150713;27;20667;-76
2023/04/25 01:19:02;;;;;;;2.10;1.50;;;;;;;12.43;100.00;98226.22;5152060;27;20196;-76
2023/04/25 01:21:30;;;;;;;2.17;1.57;;;;;;;12.50;100.00;98226.44;5154805;27;20219;-76
2023/04/25 01:23:58;;;;;;;2.37;1.40;;;;;;;12.57;100.00;98227.50;5155122;27;20196;-75
2023/04/25 01:26:25;;;;;;;2.10;1.57;;;;;;;12.49;100.00;98235.91;5154542;27;20259;-76
2023/04/25 01:28:53;;;;;;;1.97;1.63;;;;;;;12.48;100.00;98230.91;5154843;27;20192;-75
2023/04/25 01:31:20;;;;;;;2.13;1.47;;;;;;;12.48;100.00;98248.84;5154296;27;20200;-75
2023/04/25 01:33:48;;;;;;;1.40;1.30;;;;;;;12.39;100.00;98246.22;5154614;27;20196;-75
2023/04/25 01:36:16;;;;;;;2.33;1.70;;;;;;;12.31;100.00;98243.56;5154463;27;20215;-75
2023/04/25 01:38:46;;;;;;;2.30;1.50;;;;;;;12.37;100.00;98242.19;5154705;27;20203;-75
2023/04/25 01:41:13;;;;;;;1.93;1.50;;;;;;;12.32;100.00;98240.03;5154399;27;20223;-76
2023/04/25 01:43:40;;;;;;;2.10;1.43;;;;;;;12.27;100.00;98226.84;5154653;27;20200;-75
2023/04/25 01:46:07;;;;;;;1.40;1.30;;;;;;;12.26;100.00;98227.00;5153995;27;20778;-75
2023/04/25 01:48:34;;;;;;;1.73;1.27;;;;;;;12.28;100.00;98227.66;5154406;27;20655;-75
2023/04/25 01:51:01;;;;;;;2.20;1.47;;;;;;;12.34;100.00;98217.66;5154021;27;20227;-75
2023/04/25 01:53:28;;;;;;;1.23;1.03;;;;;;;12.32;100.00;98218.72;5154197;27;20858;-75
2023/04/25 01:55:56;;;;;;;1.40;1.30;;;;;;;12.34;100.00;98217.66;5154376;27;20216;-75
2023/04/25 01:58:23;;;;;;;1.67;1.27;;;;;;;12.43;100.00;98201.41;5154251;27;20201;-75
2023/04/25 02:00:49;;;;;;;1.27;1.17;;;;;;;12.50;100.00;98200.81;5153946;27;20297;-75
2023/04/25 02:03:16;;;;;;;2.67;1.37;;;;;;;12.47;100.00;98194.22;5153840;27;20672;-75
2023/04/25 02:05:43;;;;;;;1.33;1.20;;;;;;;12.56;100.00;98197.66;5153714;27;20224;-75
2023/04/25 02:08:10;;;;;;;1.40;1.20;;;;;;;12.24;100.00;98183.56;5154009;27;20210;-75
2023/04/25 02:10:37;;;;;;;1.47;1.00;;;;;;;12.26;100.00;98173.97;5153389;27;20227;-75
2023/04/25 02:13:06;;;;;;;1.20;1.10;;;;;;;12.24;100.00;98166.41;5153815;27;20203;-75
2023/04/25 02:15:33;;;;;;;1.70;1.37;;;;;;;12.24;100.00;98170.75;5153625;27;20219;-75
2023/04/25 02:18:01;;;;;;;1.67;1.10;;;;;;;12.18;100.00;98176.44;5153714;27;20194;-75
2023/04/25 02:20:28;;;;;;;1.73;1.30;;;;;;;12.12;100.00;98177.03;5153806;27;20276;-75
2023/04/25 02:22:55;;;;;;;1.87;1.40;;;;;;;12.20;100.00;98174.56;5153328;27;20504;-75
2023/04/25 02:25:23;;;;;;;2.70;1.20;;;;;;;12.28;100.00;98168.72;5153528;27;20219;-75
2023/04/25 02:27:51;;;;;;;2.83;1.23;;;;;;;12.32;100.00;98178.53;5153328;27;20203;-75
2023/04/25 02:30:19;;;;;;;3.50;1.83;;;;;;;12.30;100.00;98172.72;5153161;27;20223;-75
2023/04/25 02:32:46;;;;;;;2.30;1.40;;;;;;;12.35;100.00;98178.25;5153555;27;20196;-75
2023/04/25 02:35:13;;;;;;;1.33;1.13;;;;;;;12.26;100.00;98183.44;5153449;27;20216;-75
2023/04/25 02:37:41;;;;;;;1.80;1.37;;;;;;;12.28;100.00;98171.28;5153017;27;20204;-75
2023/04/25 02:40:08;;;;;;;1.30;1.07;;;;;;;12.46;100.00;98174.66;5153004;27;20216;-75
2023/04/25 02:42:36;;;;;;;2.13;1.23;;;;;;;12.51;100.00;98176.78;5153133;27;20299;-75
2023/04/25 02:45:03;;;;;;;1.50;1.30;;;;;;;12.45;100.00;98173.88;5153360;27;20216;-74
2023/04/25 02:47:32;;;;;;;1.60;1.40;;;;;;;12.42;100.00;98173.31;5153303;27;20579;-75
2023/04/25 02:49:58;;;;;;;1.50;1.20;;;;;;;12.34;100.00;98170.72;5152916;27;20216;-75
2023/04/25 02:52:25;;;;;;;1.93;1.30;;;;;;;12.43;100.00;98170.63;5153074;27;20196;-75
2023/04/25 02:54:52;;;;;;;1.83;1.10;;;;;;;12.54;100.00;98166.25;5152721;27;20219;-75
2023/04/25 02:57:19;;;;;;;3.73;1.40;;;;;;;12.63;100.00;98162.81;5152648;27;20693;-75
2023/04/25 02:59:46;;;;;;;2.30;1.37;;;;;;;12.72;100.00;98174.75;5152901;27;20224;-75
2023/04/25 03:02:12;;;;;;;1.70;1.30;;;;;;;12.66;100.00;98180.47;5152607;27;20624;-75
2023/04/25 03:04:41;;;;;;;1.40;1.03;;;;;;;12.65;100.00;98183.97;5152428;27;21032;-75
2023/04/25 03:07:08;;;;;;;4.10;1.37;;;;;;;12.66;100.00;98180.47;5152544;27;20223;-75
2023/04/25 03:09:35;;;;;;;1.20;1.07;;;;;;;12.59;100.00;98182.00;5152756;27;20211;-75
2023/04/25 03:12:02;;;;;;;1.60;1.30;;;;;;;12.56;100.00;98175.41;5152492;27;20589;-75
2023/04/25 03:14:28;;;;;;;1.83;1.27;;;;;;;12.62;100.00;98174.84;5152125;27;20222;-75
2023/04/25 03:16:55;;;;;;;0.97;0.97;;;;;;;12.64;100.00;98183.16;5152452;27;20202;-75
2023/04/25 03:19:22;;;;;;;1.90;1.10;;;;;;;12.73;100.00;98185.81;5152560;27;20655;-75
2023/04/25 03:21:50;;;;;;;1.10;0.90;;;;;;;12.88;100.00;98180.00;5152155;27;20242;-75
2023/04/25 03:24:17;;;;;;;1.43;1.17;;;;;;;12.90;100.00;98188.38;5152557;27;20223;-75
2023/04/25 03:26:44;;;;;;;1.30;0.83;;;;;;;12.90;100.00;98190.94;5152345;27;20200;-75
2023/04/25 03:29:11;;;;;;;1.07;0.97;;;;;;;12.94;100.00;98180.38;5152326;27;20733;-75
2023/04/25 03:31:38;;;;;;;1.87;1.13;;;;;;;12.93;100.00;98182.16;5152083;27;20649;-75
2023/04/25 03:34:04;;;;;;;1.10;0.90;;;;;;;12.95;100.00;98184.56;5152473;27;20209;-75
2023/04/25 03:36:32;;;;;;;0.93;0.67;;;;;;;12.80;100.00;98182.53;5152123;27;20212;-75
2023/04/25 03:39:00;;;;;;;1.10;0.83;;;;;;;12.93;100.00;98186.47;5152329;27;20201;-75
2023/04/25 03:41:27;;;;;;;2.87;1.17;;;;;;;12.67;100.00;98187.19;5151628;27;20708;-75
2023/04/25 03:43:54;;;;;;;1.20;1.03;;;;;;;12.74;100.00;98190.81;5151210;27;20202;-75
2023/04/25 03:46:21;;;;;;;2.43;1.00;;;;;;;12.75;100.00;98189.84;5151702;27;20237;-75
2023/04/25 03:48:48;;;;;;;1.37;1.23;;;;;;;12.72;100.00;98179.88;5151607;27;20256;-75
2023/04/25 03:51:15;;;;;;;0.90;0.67;;;;;;;12.76;100.00;98183.75;5151748;27;20620;-75
2023/04/25 03:53:42;;;;;;;1.47;1.30;;;;;;;12.81;100.00;98189.25;5151982;27;20331;-75
2023/04/25 03:56:10;;;;;;;1.50;1.20;;;;;;;12.76;100.00;98188.88;5151721;27;20221;-75
2023/04/25 03:58:37;;;;;;;1.07;0.83;;;;;;;12.81;100.00;98184.13;5151597;27;20640;-75
2023/04/25 04:01:07;;;;;;;2.23;1.40;;;;;;;12.75;100.00;98183.91;5151719;27;20216;-75
2023/04/25 04:03:34;;;;;;;1.80;1.30;;;;;;;12.64;100.00;98179.81;5151325;27;20242;-75
2023/04/25 04:06:01;;;;;;;1.43;1.10;;;;;;;12.62;100.00;98179.97;5151402;27;20216;-75
2023/04/25 04:08:27;;;;;;;2.93;1.13;;;;;;;12.78;100.00;98194.69;5151560;27;20199;-75
2023/04/25 04:10:54;;;;;;;1.47;1.23;;;;;;;12.90;100.00;98188.38;5151526;27;20607;-75
2023/04/25 04:13:22;;;;;;;1.43;1.27;;;;;;;13.03;100.00;98197.44;5151426;27;20207;-75
2023/04/25 04:15:49;;;;;;;2.30;1.83;;;;;;;13.07;100.00;98196.22;5151325;27;20221;-75
2023/04/25 04:18:16;;;;;;;1.07;1.00;;;;;;;13.19;100.00;98202.72;5151352;27;20207;-75
2023/04/25 04:20:43;;;;;;;1.70;1.27;;;;;;;13.08;100.00;98202.94;5151395;27;20233;-75
2023/04/25 04:23:10;;;;;;;1.70;1.50;;;;;;;12.99;100.00;98201.28;5151330;27;20740;-74
2023/04/25 04:25:37;;;;;;;1.70;1.10;;;;;;;13.05;100.00;98206.59;5151047;27;20304;-75
2023/04/25 04:28:04;;;;;;;1.63;1.30;;;;;;;13.08;100.00;98205.50;5151458;27;20263;-75
2023/04/25 04:30:36;;;;;;;1.93;1.30;;;;;;;13.04;100.00;98199.06;5151340;27;20275;-75
2023/04/25 04:33:03;;;;;;;1.00;0.90;;;;;;;13.03;100.00;98197.44;5151135;27;20207;-75
2023/04/25 04:35:30;;;;;;;1.17;1.07;;;;;;;13.06;100.00;98212.53;5151100;27;20220;-75
2023/04/25 04:37:57;;;;;;;1.40;1.30;;;;;;;13.03;100.00;98203.41;5151121;27;20689;-75
2023/04/25 04:40:23;;;;;;;1.67;1.33;;;;;;;13.12;100.00;98206.84;5151115;27;20722;-75
2023/04/25 04:42:50;;;;;;;1.53;1.13;;;;;;;13.19;100.00;98207.84;5151042;27;20248;-74
2023/04/25 04:45:18;;;;;;;1.77;1.10;;;;;;;12.82;100.00;98219.06;5151278;27;20476;-75
2023/04/25 04:47:48;;;;;;;1.03;0.87;;;;;;;13.05;100.00;98221.22;5151142;27;20194;-75
2023/04/25 04:50:15;;;;;;;1.00;0.77;;;;;;;13.03;100.00;98223.09;5151340;27;20225;-75
2023/04/25 04:52:43;;;;;;;1.40;1.07;;;;;;;12.92;100.00;98226.72;5151175;27;20209;-75
2023/04/25 04:55:10;;;;;;;1.80;1.40;;;;;;;13.10;100.00;98224.94;5154470;27;20216;-75
2023/04/25 04:57:38;;;;;;;2.30;1.90;;;;;;;13.19;100.00;98225.81;5155048;27;20250;-75
2023/04/25 05:00:10;;;;;;;1.70;1.43;;;;;;;13.30;100.00;98225.63;5154936;27;20240;-75
2023/04/25 05:02:37;;;;;;;1.03;0.97;;;;;;;13.15;100.00;98224.50;5154963;27;20239;-75
2023/04/25 05:05:05;;;;;;;1.83;1.03;;;;;;;13.26;100.00;98231.97;5155342;27;20230;-75
2023/04/25 05:07:32;;;;;;;1.47;1.10;;;;;;;13.21;100.00;98221.34;5154954;27;20668;-75
2023/04/25 05:09:59;;;;;;;1.50;1.07;;;;;;;13.38;100.00;98221.47;5154778;27;20218;-75
2023/04/25 05:12:26;;;;;;;1.67;1.00;;;;;;;13.41;100.00;98226.31;5154915;27;20199;-75
2023/04/25 05:14:53;;;;;;;1.30;1.13;;;;;;;13.45;100.00;98227.66;5154773;27;20217;-75
2023/04/25 05:17:20;;;;;;;1.30;1.20;;;;;;;13.50;100.00;98222.88;5154575;27;20200;-75
2023/04/25 05:19:46;;;;;;;1.07;0.97;;;;;;;13.51;100.00;98227.03;5154837;27;20222;-75
2023/04/25 05:22:14;;;;;;;2.53;1.50;;;;;;;13.66;100.00;98222.97;5154938;27;20300;-75
2023/04/25 05:24:41;;;;;;;1.47;1.10;;;;;;;13.69;100.00;98221.84;5154552;27;20614;-75
2023/04/25 05:27:08;;;;;;;1.47;0.80;;;;;;;13.72;100.00;98224.91;5154364;27;20215;-75
2023/04/25 05:29:35;;;;;;;1.40;0.93;;;;;;;13.72;100.00;98219.78;5154689;27;20773;-75
2023/04/25 05:32:02;;;;;;;1.90;1.30;;;;;;;13.87;100.00;98221.78;5154391;27;20244;-75
2023/04/25 05:34:28;;;;;;;1.30;1.00;;;;;;;13.86;100.00;98220.19;5154509;27;20216;-75
2023/04/25 05:36:55;;;;;;;1.10;1.00;;;;;;;13.85;100.00;98216.00;5154631;27;20209;-75
2023/04/25 05:39:23;;;;;;;1.87;1.20;;;;;;;13.95;100.00;98219.25;5154591;27;20289;-75
2023/04/25 05:41:50;;;;;;;1.20;0.90;;;;;;;13.94;100.00;98220.22;5154411;27;20256;-75
2023/04/25 05:44:17;;;;;;;1.33;1.00;;;;;;;13.87;100.00;98216.66;5154054;27;20219;-75
2023/04/25 05:46:44;;;;;;;1.20;1.10;;;;;;;13.98;100.00;98226.66;5154165;27;20267;-75
2023/04/25 05:49:11;;;;;;;1.00;0.90;;;;;;;14.03;100.00;98221.88;5154145;27;20273;-75
2023/04/25 05:51:37;;;;;;;1.50;0.97;;;;;;;14.07;100.00;98228.31;5154141;27;20278;-74
2023/04/25 05:54:04;;;;;;;1.33;1.07;;;;;;;14.01;100.00;98228.91;5154149;27;20211;-75
2023/04/25 05:56:33;;;;;;;1.70;1.10;;;;;;;14.15;100.00;98235.25;5154018;27;20202;-75
2023/04/25 05:58:59;;;;;;;1.20;0.97;;;;;;;14.16;100.00;98232.53;5153876;27;20675;-74
2023/04/25 06:01:26;;;;;;;1.80;1.27;;;;;;;14.22;100.00;98231.94;5154066;27;20204;-75
2023/04/25 06:03:53;;;;;;;1.97;1.00;;;;;;;14.19;100.00;98232.22;5153545;27;20228;-75
2023/04/25 06:06:20;;;;;;;1.77;1.10;;;;;;;14.37;100.00;98233.88;5152862;27;20205;-75
2023/04/25 06:08:47;;;;;;;1.20;1.10;;;;;;;14.60;100.00;98229.81;5153586;27;20670;-75
2023/04/25 06:11:13;;;;;;;1.70;1.37;;;;;;;14.76;100.00;98235.94;5153854;27;20215;-75
2023/04/25 06:13:41;;;;;;;1.90;1.43;;;;;;;14.78;100.00;98236.59;5154011;27;20256;-75
2023/04/25 06:16:08;;;;;;;1.70;1.33;;;;;;;15.06;100.00;98230.19;5153517;27;20219;-75
2023/04/25 06:18:35;;;;;;;1.93;1.00;;;;;;;15.22;100.00;98228.59;5153694;27;20210;-75
2023/04/25 06:21:02;;;;;;;1.77;1.27;;;;;;;15.32;100.00;98229.22;5153583;27;20247;-75
2023/04/25 06:23:29;;;;;;;1.50;1.20;;;;;;;15.36;100.00;98231.31;5153804;27;20231;-74
2023/04/25 06:25:56;;;;;;;1.60;1.23;;;;;;;15.45;100.00;98229.53;5153513;27;20217;-75
2023/04/25 06:28:24;;;;;;;1.00;0.70;;;;;;;15.47;100.00;98237.88;5153647;27;20582;-75
2023/04/25 06:30:52;;;;;;;4.27;1.20;;;;;;;15.62;100.00;98241.44;5153460;27;20221;-75
2023/04/25 06:33:19;;;;;;;1.20;1.10;;;;;;;15.81;100.00;98239.47;5153319;27;20610;-75
2023/04/25 06:35:46;;;;;;;1.67;1.30;;;;;;;16.09;100.00;98252.00;5153416;27;20251;-75
2023/04/25 06:38:13;;;;;;;1.20;1.10;;;;;;;15.99;100.00;98247.81;5153452;27;20199;-75
2023/04/25 06:40:40;;;;;;;1.87;1.30;;;;;;;16.39;100.00;98246.03;5153146;27;20236;-75
2023/04/25 06:43:07;;;;;;;1.87;1.30;;;;;;;16.88;100.00;98243.22;5153252;27;20329;-75
2023/04/25 06:45:33;;;;;;;1.30;1.03;;;;;;;17.56;100.00;98240.75;5152742;27;20269;-75
2023/04/25 06:48:02;;;;;;;2.40;1.00;;;;;;;17.89;100.00;98241.25;5152915;27;20197;-74
2023/04/25 06:50:28;;;;;;;1.43;1.20;;;;;;;17.69;100.00;98248.69;5153330;27;20216;-75
2023/04/25 06:52:55;;;;;;;1.27;1.17;;;;;;;17.71;100.00;98253.69;5153073;27;20197;-75
2023/04/25 06:55:22;;;;;;;1.63;1.23;;;;;;;18.20;100.00;98242.84;5153115;27;20218;-77
2023/04/25 06:57:49;;;;;;;1.50;1.40;;;;;;;18.78;100.00;98254.88;5153018;27;20211;-76
2023/04/25 07:00:16;;;;;;;1.80;1.37;;;;;;;18.83;100.00;98243.19;5152750;27;20259;-76
2023/04/25 07:02:43;;;;;;;2.03;1.30;;;;;;;19.15;95.65;98242.66;5152594;27;20311;-77
2023/04/25 07:05:12;;;;;;;1.77;1.27;;;;;;;19.77;95.96;98242.94;5152620;27;20234;-77
2023/04/25 07:07:38;;;;;;;3.20;1.43;;;;;;;20.13;89.78;98250.53;5152794;27;20202;-76
2023/04/25 07:10:06;;;;;;;2.57;1.60;;;;;;;19.92;88.17;98253.22;5152513;27;20733;-76
2023/04/25 07:12:33;;;;;;;5.67;1.50;;;;;;;20.32;87.91;98241.22;5152392;27;20293;-76
2023/04/25 07:15:05;;;;;;;4.87;1.40;;;;;;;20.84;88.40;98237.22;5152439;27;20770;-76
2023/04/25 07:17:32;;;;;;;1.93;1.40;;;;;;;21.22;79.88;98236.63;5152653;27;20558;-77
2023/04/25 07:19:59;;;;;;;2.13;1.20;;;;;;;21.45;76.17;98244.06;5153132;27;20227;-77
2023/04/25 07:22:27;;;;;;;1.40;1.00;;;;;;;21.33;73.10;98241.25;5152290;27;20683;-76
2023/04/25 07:24:54;;;;;;;1.40;1.10;;;;;;;21.34;74.48;98242.84;5152826;27;20219;-76
2023/04/25 07:27:21;;;;;;;1.27;1.10;;;;;;;21.59;76.39;98239.66;5152534;27;20574;-76
2023/04/25 07:29:48;;;;;;;2.03;1.13;;;;;;;21.45;67.18;98244.84;5152112;27;20218;-76
2023/04/25 07:32:15;;;;;;;4.60;1.30;;;;;;;21.74;66.41;98237.63;5152117;27;20192;-75
2023/04/25 07:34:41;;;;;;;1.55;1.20;;;;;;;21.60;68.97;98243.84;5152346;27;20224;-75
2023/04/25 07:37:08;;;;;;;1.73;1.40;;;;;;;21.60;68.88;98239.44;5151864;27;20755;-76
2023/04/25 07:39:37;;;;;;;2.63;1.50;;;;;;;21.64;68.87;98242.44;5152058;27;20216;-75
2023/04/25 07:42:06;;;;;;;1.50;1.17;;;;;;;21.82;69.11;98240.00;5152464;27;20660;-76
2023/04/25 07:44:38;;;;;;;1.50;1.20;;;;;;;21.81;70.04;98242.81;5151950;27;20319;-76
2023/04/25 07:47:05;;;;;;;1.23;1.10;;;;;;;22.25;62.82;98249.94;5151995;27;20582;-75
2023/04/25 07:49:32;;;;;;;3.33;1.10;;;;;;;21.11;63.70;98245.03;5152237;27;20212;-76
2023/04/25 07:51:58;;;;;;;1.08;1.00;;;;;;;20.78;65.73;98238.78;5152317;27;20245;-76
2023/04/25 07:54:26;;;;;;;1.17;0.90;;;;;;;21.17;65.21;98236.44;5152091;27;20216;-76
2023/04/25 07:56:54;;;;;;;1.80;1.00;;;;;;;21.78;61.50;98238.81;5151756;27;20743;-76
2023/04/25 07:59:21;;;;;;;0.85;0.85;;;;;;;21.67;61.79;98231.63;5151565;27;20224;-75
2023/04/25 08:01:48;;;;;;;0.90;0.90;;;;;;;21.95;61.08;98238.38;5151736;27;20210;-76
2023/04/25 08:04:15;;;;;;;2.13;1.40;;;;;;;22.08;60.63;98238.34;5151342;27;20227;-75
2023/04/25 08:06:41;;;;;;;1.10;0.80;;;;;;;21.44;61.08;98238.06;5151787;27;20580;-75
2023/04/25 08:09:09;;;;;;;1.27;1.17;;;;;;;20.98;63.34;98244.03;5151846;27;20699;-75
2023/04/25 08:11:36;;;;;;;2.00;1.10;;;;;;;21.36;67.54;98240.03;5151415;27;20192;-75
2023/04/25 08:14:04;;;;;;;1.48;1.23;;;;;;;21.58;62.61;98245.84;5151270;27;20200;-75
2023/04/25 08:16:31;;;;;;;1.17;0.95;;;;;;;21.67;63.18;98248.03;5151455;27;20196;-76
2023/04/25 08:18:58;;;;;;;3.33;1.52;;;;;;;21.86;65.28;98240.41;5151351;27;20196;-75
2023/04/25 08:21:25;;;;;;;1.38;1.10;;;;;;;21.85;67.37;98244.81;5151382;27;20248;-77
2023/04/25 08:23:52;;;;;;;1.23;1.02;;;;;;;22.28;62.63;98252.13;5151488;27;20232;-76
2023/04/25 08:26:19;;;;;;;1.75;1.25;;;;;;;21.95;64.28;98248.78;5151617;27;20199;-76
2023/04/25 08:28:47;;;;;;;1.25;1.15;;;;;;;21.40;66.35;98249.84;5150918;27;20283;-75
2023/04/25 08:31:16;;;;;;;2.03;1.45;;;;;;;21.11;66.49;98252.81;5151262;27;20196;-75
2023/04/25 08:33:42;;;;;;;2.15;1.30;;;;;;;20.70;70.35;98256.34;5151508;27;20192;-75
2023/04/25 08:36:09;;;;;;;2.13;1.40;;;;;;;20.11;74.19;98258.50;5151089;27;20219;-74
2023/04/25 08:38:37;;;;;;;1.70;1.50;;;;;;;20.26;75.84;98260.97;5151404;27;20381;-74
2023/04/25 08:41:04;;;;;;;1.03;0.93;;;;;;;20.25;75.89;98254.19;5151152;27;20222;-74
2023/04/25 08:43:31;;;;;;;1.90;1.37;;;;;;;20.10;75.82;98246.53;5151249;27;20223;-74
2023/04/25 08:46:00;;;;;;;3.97;1.53;;;;;;;20.16;76.13;98251.94;5151307;27;20221;-74
2023/04/25 08:48:29;;;;;;;2.40;1.30;;;;;;;19.87;74.19;98246.00;5151195;27;20215;-74
2023/04/25 08:50:58;;;;;;;2.43;1.50;;;;;;;19.54;75.80;98240.56;5151154;27;20217;-74
2023/04/25 08:53:27;;;;;;;2.80;1.10;;;;;;;19.43;76.44;98241.88;5151083;27;20723;-74
2023/04/25 08:55:56;;;;;;;1.13;1.03;;;;;;;19.22;75.67;98240.13;5151025;27;20736;-74
2023/04/25 08:58:23;;;;;;;1.40;1.20;;;;;;;19.41;77.37;98246.47;5151393;27;20291;-74
2023/04/25 09:00:52;;;;;;;2.23;1.10;;;;;;;19.39;79.55;98246.66;5150930;27;20225;-74
2023/04/25 09:03:19;;;;;;;2.40;1.80;;;;;;;19.61;79.28;98242.22;5150899;27;20227;-74
2023/04/25 09:05:47;;;;;;;4.70;2.90;;;;;;;19.54;79.34;98235.38;5150857;27;20222;-74
2023/04/25 09:08:14;;;;;;;2.00;1.43;;;;;;;19.99;75.77;98238.50;5151404;27;20643;-74
2023/04/25 09:10:41;;;;;;;2.50;1.30;;;;;;;20.99;71.72;98240.41;5151029;27;20229;-74
2023/04/25 09:13:10;;;;;;;1.53;1.33;;;;;;;21.23;74.36;98233.03;5150986;27;20212;-74
2023/04/25 09:15:49;;;;;;;1.30;1.20;;;;;;;20.54;63.61;98247.94;5150744;27;20224;-74
2023/04/25 09:18:23;;;;;;;1.57;1.00;;;;;;;19.34;65.45;98241.22;5151256;27;20259;-74
2023/04/25 09:20:52;;;;;;;1.93;1.23;;;;;;;18.97;75.19;98237.94;5150852;27;20225;-75
2023/04/25 09:23:21;;;;;;;2.80;1.30;;;;;;;17.81;86.53;98252.47;5150687;27;20723;-75
2023/04/25 09:25:49;;;;;;;1.63;1.23;;;;;;;17.61;92.19;98243.59;5150900;27;20226;-75
2023/04/25 09:28:16;;;;;;;1.63;1.20;;;;;;;17.40;95.13;98232.16;5150906;27;20200;-76
2023/04/25 09:30:43;;;;;;;1.20;1.10;;;;;;;17.56;100.00;98243.31;5150728;27;20217;-75
2023/04/25 09:33:13;;;;;;;0.87;0.83;;;;;;;17.53;100.00;98241.09;5150649;27;20696;-77
2023/04/25 09:35:41;;;;;;;0.97;0.97;;;;;;;18.26;100.00;98242.09;5151306;27;20266;-76
2023/04/25 09:38:14;;;;;;;1.40;1.00;;;;;;;18.61;100.00;98240.50;5150644;27;20674;-77
2023/04/25 09:40:42;;;;;;;1.53;1.10;;;;;;;18.37;95.27;98243.44;5151179;27;20223;-76
2023/04/25 09:43:13;;;;;;;1.13;1.00;;;;;;;18.28;96.59;98238.38;5154504;27;20225;-76
2023/04/25 09:45:45;;;;;;;1.63;1.20;;;;;;;18.13;96.13;98240.19;5154314;27;20611;-76
2023/04/25 09:48:12;;;;;;;4.63;1.10;;;;;;;18.09;99.37;98246.66;5154364;27;20202;-76
2023/04/25 09:50:40;;;;;;;1.23;1.13;;;;;;;18.01;94.87;98245.00;5154054;27;20223;-77
2023/04/25 09:53:07;;;;;;;1.10;1.00;;;;;;;17.88;96.63;98243.03;5154516;27;20301;-77
2023/04/25 09:55:35;;;;;;;1.50;1.10;;;;;;;17.80;91.86;98237.97;5154146;27;20229;-76
2023/04/25 09:58:07;;;;;;;1.43;1.17;;;;;;;17.83;91.73;98242.78;5153811;27;20203;-76
2023/04/25 10:00:35;;;;;;;1.00;0.90;;;;;;;18.02;94.59;98240.63;5154151;27;20688;-76
2023/04/25 10:03:05;;;;;;;1.57;0.90;;;;;;;18.24;88.40;98241.50;5154044;27;20248;-76
2023/04/25 10:05:35;;;;;;;1.37;0.80;;;;;;;18.08;93.14;98239.91;5153792;27;20232;-75
2023/04/25 10:08:04;;;;;;;0.90;0.73;;;;;;;18.03;88.32;98237.03;5154045;27;20213;-75
2023/04/25 10:10:35;;;;;;;1.20;1.03;;;;;;;17.85;86.88;98238.19;5153919;27;20721;-75
2023/04/25 10:13:06;;;;;;;2.13;1.50;;;;;;;17.88;89.39;98240.44;5153734;27;20282;-75
2023/04/25 10:15:35;;;;;;;1.60;1.37;;;;;;;18.04;90.62;98238.66;5153614;27;20227;-75
2023/04/25 10:18:02;;;;;;;1.70;1.10;;;;;;;18.56;93.62;98232.53;5153864;27;20253;-75
2023/04/25 10:20:29;;;;;;;1.27;1.10;;;;;;;19.27;88.69;98234.41;5153803;27;20261;-75
2023/04/25 10:23:04;;;;;;;1.70;1.27;;;;;;;19.20;84.35;98227.38;5153605;27;20205;-75
2023/04/25 10:25:32;;;;;;;2.53;1.33;;;;;;;19.05;88.66;98226.63;5153455;27;20229;-75
2023/04/25 10:28:00;;;;;;;3.00;1.60;;;;;;;19.03;84.05;98227.81;5153931;27;20281;-74
2023/04/25 10:30:28;;;;;;;1.50;1.30;;;;;;;18.78;84.09;98221.22;5153326;27;20227;-74
2023/04/25 10:32:56;;;;;;;2.77;1.43;;;;;;;18.67;86.51;98223.44;5153826;27;20194;-75
2023/04/25 10:35:27;;;;;;;1.43;1.20;;;;;;;18.44;84.88;98218.41;5153435;27;20274;-75
2023/04/25 10:38:03;;;;;;;1.30;1.20;;;;;;;18.59;82.85;98220.97;5153412;27;20738;-75
2023/04/25 10:40:31;;;;;;;1.97;1.50;;;;;;;18.96;86.09;98218.19;5153937;27;20274;-75
2023/04/25 10:43:37;;;;;;;1.27;1.00;;;;;;;19.75;81.68;98221.59;5153371;27;20380;-76
2023/04/25 10:46:14;;;;;;;1.23;0.97;;;;;;;19.82;78.31;98212.06;5153010;27;20221;-74
2023/04/25 10:48:48;;;;;;;0.87;0.83;;;;;;;19.70;78.65;98208.41;5153109;27;20736;-76
2023/04/25 10:51:18;;;;;;;1.00;0.90;;;;;;;19.57;76.30;98219.44;5152862;27;20281;-74
2023/04/25 10:53:46;;;;;;;0.70;0.70;;;;;;;19.36;71.25;98213.31;5153137;27;20203;-74
2023/04/25 10:56:17;;;;;;;3.57;0.70;;;;;;;19.30;71.44;98210.69;5153212;27;20592;-73
2023/04/25 10:58:45;;;;;;;0.83;0.77;;;;;;;19.26;72.91;98212.88;5153200;27;20197;-73
2023/04/25 11:01:13;;;;;;;0.63;0.60;;;;;;;19.48;70.38;98211.00;5152920;27;20682;-74
2023/04/25 11:03:43;;;;;;;0.70;0.70;;;;;;;19.92;71.80;98209.91;5152789;27;20636;-74
2023/04/25 11:06:21;;;;;;;1.07;0.60;;;;;;;20.46;70.97;98206.53;5152848;27;20305;-74
2023/04/25 11:08:50;;;;;;;0.77;0.77;;;;;;;20.48;66.86;98207.13;5152732;27;20223;-75
2023/04/25 11:11:18;;;;;;;0.87;0.70;;;;;;;21.15;71.36;98196.84;5152732;27;20225;-73
2023/04/25 11:13:45;;;;;;;1.63;1.20;;;;;;;21.93;69.00;98195.13;5152400;27;20204;-74
2023/04/25 11:16:13;;;;;;;0.60;0.60;;;;;;;22.13;60.24;98184.63;5152782;27;20198;-74
2023/04/25 11:18:42;;;;;;;1.17;1.00;;;;;;;22.32;59.34;98188.19;5152903;27;20199;-74
2023/04/25 11:21:09;;;;;;;0.98;0.70;;;;;;;22.30;58.11;98192.78;5152271;27;20223;-74
2023/04/25 11:23:36;;;;;;;1.08;0.88;;;;;;;22.25;56.89;98197.84;5152217;27;20203;-74
2023/04/25 11:26:03;;;;;;;0.95;0.75;;;;;;;21.97;55.50;98199.94;5152391;27;20216;-74
2023/04/25 11:28:30;;;;;;;0.70;0.70;;;;;;;21.99;58.34;98203.09;5152450;27;20276;-74
2023/04/25 11:30:57;;;;;;;0.60;0.60;;;;;;;21.79;55.49;98198.78;5152341;27;20212;-74